sensor_id;sensor_type;location;lat;lon;timestamp;temperature;humidity
57108;DHT22;42987;52.916;6.542;2023-08-21T12:59:01;27.30;88.20
57108;DHT22;42987;52.916;6.542;2023-08-21T13:01:28;27.30;91.70
57108;DHT22;42987;52.916;6.542;2023-08-21T13:03:55;27.30;92.40
57108;DHT22;42987;52.916;6.542;2023-08-21T13:06:21;27.20;92.60
57108;DHT22;42987;52.916;6.542;2023-08-21T13:08:46;27.10;92.80
57108;DHT22;42987;52.916;6.542;2023-08-21T13:11:12;27.10;92.00
57108;DHT22;42987;52.916;6.542;2023-08-21T13:13:38;27.10;93.20
57108;DHT22;42987;52.916;6.542;2023-08-21T13:16:04;27.10;95.10
57108;DHT22;42987;52.916;6.542;2023-08-21T13:18:30;27.00;94.00
57108;DHT22;42987;52.916;6.542;2023-08-21T13:20:55;26.90;95.10
57108;DHT22;42987;52.916;6.542;2023-08-21T13:23:21;27.00;94.70
57108;DHT22;42987;52.916;6.542;2023-08-21T13:25:48;27.00;93.30
57108;DHT22;42987;52.916;6.542;2023-08-21T13:28:14;27.10;94.00
57108;DHT22;42987;52.916;6.542;2023-08-21T13:30:43;27.10;94.00
57108;DHT22;42987;52.916;6.542;2023-08-21T13:33:08;27.10;95.10
57108;DHT22;42987;52.916;6.542;2023-08-21T13:35:34;27.00;95.90
57108;DHT22;42987;52.916;6.542;2023-08-21T13:38:00;27.00;96.30
57108;DHT22;42987;52.916;6.542;2023-08-21T13:40:26;27.00;95.90
57108;DHT22;42987;52.916;6.542;2023-08-21T13:42:52;27.00;96.30
57108;DHT22;42987;52.916;6.542;2023-08-21T13:45:19;26.90;97.50
57108;DHT22;42987;52.916;6.542;2023-08-21T13:47:47;26.90;96.20
57108;DHT22;42987;52.916;6.542;2023-08-21T13:50:15;26.80;94.00
57108;DHT22;42987;52.916;6.542;2023-08-21T13:52:42;26.70;93.20
57108;DHT22;42987;52.916;6.542;2023-08-21T13:55:14;26.70;94.20
57108;DHT22;42987;52.916;6.542;2023-08-21T13:57:41;26.80;93.90
57108;DHT22;42987;52.916;6.542;2023-08-21T14:00:09;26.70;93.80
57108;DHT22;42987;52.916;6.542;2023-08-21T14:02:38;26.80;92.80
57108;DHT22;42987;52.916;6.542;2023-08-21T14:05:04;26.80;91.90
57108;DHT22;42987;52.916;6.542;2023-08-21T14:07:31;26.90;91.80
57108;DHT22;42987;52.916;6.542;2023-08-21T14:10:00;26.90;92.40
57108;DHT22;42987;52.916;6.542;2023-08-21T14:12:28;26.90;93.30
57108;DHT22;42987;52.916;6.542;2023-08-21T14:14:54;26.80;92.70
57108;DHT22;42987;52.916;6.542;2023-08-21T14:17:30;26.60;93.60
57108;DHT22;42987;52.916;6.542;2023-08-21T14:19:55;26.30;93.80
57108;DHT22;42987;52.916;6.542;2023-08-21T14:22:21;26.00;94.10
57108;DHT22;42987;52.916;6.542;2023-08-21T14:24:47;25.90;94.50
57108;DHT22;42987;52.916;6.542;2023-08-21T14:27:13;25.80;95.60
57108;DHT22;42987;52.916;6.542;2023-08-21T14:29:38;25.80;93.20
57108;DHT22;42987;52.916;6.542;2023-08-21T14:32:04;25.80;92.10
57108;DHT22;42987;52.916;6.542;2023-08-21T14:34:30;25.90;92.40
57108;DHT22;42987;52.916;6.542;2023-08-21T14:36:56;25.90;92.90
57108;DHT22;42987;52.916;6.542;2023-08-21T14:39:25;26.00;93.70
57108;DHT22;42987;52.916;6.542;2023-08-21T14:41:57;26.10;92.40
57108;DHT22;42987;52.916;6.542;2023-08-21T14:44:24;26.20;92.50
57108;DHT22;42987;52.916;6.542;2023-08-21T14:46:56;26.30;92.20
57108;DHT22;42987;52.916;6.542;2023-08-21T14:49:24;26.30;92.30
57108;DHT22;42987;52.916;6.542;2023-08-21T14:51:49;26.40;92.20
57108;DHT22;42987;52.916;6.542;2023-08-21T14:54:15;26.40;91.80
57108;DHT22;42987;52.916;6.542;2023-08-21T14:56:41;26.40;91.70
57108;DHT22;42987;52.916;6.542;2023-08-21T14:59:07;26.30;90.70
57108;DHT22;42987;52.916;6.542;2023-08-21T15:01:37;26.30;91.20
57108;DHT22;42987;52.916;6.542;2023-08-21T15:04:04;26.30;91.60
57108;DHT22;42987;52.916;6.542;2023-08-21T15:06:30;26.10;92.50
57108;DHT22;42987;52.916;6.542;2023-08-21T15:08:56;26.00;93.00
57108;DHT22;42987;52.916;6.542;2023-08-21T15:11:21;25.70;93.20
57108;DHT22;42987;52.916;6.542;2023-08-21T15:13:47;25.50;94.20
57108;DHT22;42987;52.916;6.542;2023-08-21T15:16:13;25.40;95.20
57108;DHT22;42987;52.916;6.542;2023-08-21T15:18:39;25.30;96.20
57108;DHT22;42987;52.916;6.542;2023-08-21T15:21:05;25.40;94.90
57108;DHT22;42987;52.916;6.542;2023-08-21T15:23:30;25.30;93.60
57108;DHT22;42987;52.916;6.542;2023-08-21T15:25:56;25.40;92.40
57108;DHT22;42987;52.916;6.542;2023-08-21T15:28:22;25.50;92.60
57108;DHT22;42987;52.916;6.542;2023-08-21T15:30:48;25.60;92.50
57108;DHT22;42987;52.916;6.542;2023-08-21T15:33:13;25.50;94.00
57108;DHT22;42987;52.916;6.542;2023-08-21T15:35:39;25.40;93.30
57108;DHT22;42987;52.916;6.542;2023-08-21T15:38:09;25.40;93.30
57108;DHT22;42987;52.916;6.542;2023-08-21T15:40:34;25.40;92.80
57108;DHT22;42987;52.916;6.542;2023-08-21T15:43:02;25.40;92.30
57108;DHT22;42987;52.916;6.542;2023-08-21T15:45:28;25.40;92.60
57108;DHT22;42987;52.916;6.542;2023-08-21T15:47:55;25.50;92.90
57108;DHT22;42987;52.916;6.542;2023-08-21T15:50:24;25.50;93.50
57108;DHT22;42987;52.916;6.542;2023-08-21T15:52:50;25.50;93.60
57108;DHT22;42987;52.916;6.542;2023-08-21T15:55:16;25.40;92.80
57108;DHT22;42987;52.916;6.542;2023-08-21T15:57:42;25.50;92.20
57108;DHT22;42987;52.916;6.542;2023-08-21T16:00:10;25.40;90.90
57108;DHT22;42987;52.916;6.542;2023-08-21T16:02:37;25.40;90.60
57108;DHT22;42987;52.916;6.542;2023-08-21T16:05:03;25.40;91.30
57108;DHT22;42987;52.916;6.542;2023-08-21T16:07:31;25.30;92.10
57108;DHT22;42987;52.916;6.542;2023-08-21T16:09:57;25.30;92.20
57108;DHT22;42987;52.916;6.542;2023-08-21T16:12:23;25.20;91.60
57108;DHT22;42987;52.916;6.542;2023-08-21T16:14:48;25.20;90.90
57108;DHT22;42987;52.916;6.542;2023-08-21T16:17:14;25.10;91.50
57108;DHT22;42987;52.916;6.542;2023-08-21T16:19:43;25.10;90.50
57108;DHT22;42987;52.916;6.542;2023-08-21T16:22:09;25.00;90.90
57108;DHT22;42987;52.916;6.542;2023-08-21T16:24:34;25.00;91.30
57108;DHT22;42987;52.916;6.542;2023-08-21T16:27:00;24.90;91.60
57108;DHT22;42987;52.916;6.542;2023-08-21T16:29:27;24.90;90.70
57108;DHT22;42987;52.916;6.542;2023-08-21T16:31:53;24.80;90.30
57108;DHT22;42987;52.916;6.542;2023-08-21T16:34:19;24.80;90.30
57108;DHT22;42987;52.916;6.542;2023-08-21T16:36:45;24.70;90.10
57108;DHT22;42987;52.916;6.542;2023-08-21T16:39:16;24.60;90.60
57108;DHT22;42987;52.916;6.542;2023-08-21T16:41:42;24.50;90.40
57108;DHT22;42987;52.916;6.542;2023-08-21T16:44:08;24.40;91.00
57108;DHT22;42987;52.916;6.542;2023-08-21T16:46:35;24.30;91.40
57108;DHT22;42987;52.916;6.542;2023-08-21T16:49:04;24.30;92.20
57108;DHT22;42987;52.916;6.542;2023-08-21T16:51:31;24.20;92.50
57108;DHT22;42987;52.916;6.542;2023-08-21T16:53:57;24.20;93.40
57108;DHT22;42987;52.916;6.542;2023-08-21T16:56:25;24.10;93.40
57108;DHT22;42987;52.916;6.542;2023-08-21T16:58:51;24.10;95.20
57108;DHT22;42987;52.916;6.542;2023-08-21T17:01:17;24.10;97.80
57108;DHT22;42987;52.916;6.542;2023-08-21T17:03:43;24.00;99.20
57108;DHT22;42987;52.916;6.542;2023-08-21T17:06:08;24.00;99.90
57108;DHT22;42987;52.916;6.542;2023-08-21T17:08:34;24.00;99.90
57108;DHT22;42987;52.916;6.542;2023-08-21T17:11:00;23.90;99.90
57108;DHT22;42987;52.916;6.542;2023-08-21T17:13:26;23.90;99.90
57108;DHT22;42987;52.916;6.542;2023-08-21T17:15:52;23.80;99.90
57108;DHT22;42987;52.916;6.542;2023-08-21T17:18:18;23.80;99.90
57108;DHT22;42987;52.916;6.542;2023-08-21T17:20:44;23.70;99.90
57108;DHT22;42987;52.916;6.542;2023-08-21T17:23:10;23.70;99.90
57108;DHT22;42987;52.916;6.542;2023-08-21T17:25:39;23.70;99.90
57108;DHT22;42987;52.916;6.542;2023-08-21T17:28:04;23.60;99.90
57108;DHT22;42987;52.916;6.542;2023-08-21T17:30:30;23.60;99.90
57108;DHT22;42987;52.916;6.542;2023-08-21T17:32:57;23.50;99.90
57108;DHT22;42987;52.916;6.542;2023-08-21T17:35:24;23.50;99.90
57108;DHT22;42987;52.916;6.542;2023-08-21T17:37:54;23.40;99.90
57108;DHT22;42987;52.916;6.542;2023-08-21T17:40:20;23.40;99.90
57108;DHT22;42987;52.916;6.542;2023-08-21T17:42:45;23.30;99.90
57108;DHT22;42987;52.916;6.542;2023-08-21T17:45:11;23.30;99.90
57108;DHT22;42987;52.916;6.542;2023-08-21T17:47:37;23.20;99.90
57108;DHT22;42987;52.916;6.542;2023-08-21T17:50:03;23.20;99.90
57108;DHT22;42987;52.916;6.542;2023-08-21T17:52:30;23.20;99.90
57108;DHT22;42987;52.916;6.542;2023-08-21T17:54:56;23.10;99.90
57108;DHT22;42987;52.916;6.542;2023-08-21T17:57:22;23.10;99.90
57108;DHT22;42987;52.916;6.542;2023-08-21T17:59:48;23.00;99.90
57108;DHT22;42987;52.916;6.542;2023-08-21T18:02:14;23.00;99.90
57108;DHT22;42987;52.916;6.542;2023-08-21T18:04:43;22.90;99.90
57108;DHT22;42987;52.916;6.542;2023-08-21T18:07:12;22.90;99.90
57108;DHT22;42987;52.916;6.542;2023-08-21T18:09:38;22.80;99.90
57108;DHT22;42987;52.916;6.542;2023-08-21T18:12:04;22.70;99.90
57108;DHT22;42987;52.916;6.542;2023-08-21T18:14:30;22.70;99.90
57108;DHT22;42987;52.916;6.542;2023-08-21T18:17:00;22.60;99.90
57108;DHT22;42987;52.916;6.542;2023-08-21T18:19:35;22.60;99.90
57108;DHT22;42987;52.916;6.542;2023-08-21T18:22:01;22.50;99.90
57108;DHT22;42987;52.916;6.542;2023-08-21T18:24:26;22.50;99.90
57108;DHT22;42987;52.916;6.542;2023-08-21T18:26:52;22.40;99.90
57108;DHT22;42987;52.916;6.542;2023-08-21T18:29:19;22.20;99.90
57108;DHT22;42987;52.916;6.542;2023-08-21T18:31:45;22.20;99.90
57108;DHT22;42987;52.916;6.542;2023-08-21T18:34:11;22.20;99.90
57108;DHT22;42987;52.916;6.542;2023-08-21T18:36:37;22.10;99.90
57108;DHT22;42987;52.916;6.542;2023-08-21T18:39:02;22.00;99.90
57108;DHT22;42987;52.916;6.542;2023-08-21T18:41:31;21.90;99.90
57108;DHT22;42987;52.916;6.542;2023-08-21T18:43:58;21.90;99.90
57108;DHT22;42987;52.916;6.542;2023-08-21T18:46:30;21.80;99.90
57108;DHT22;42987;52.916;6.542;2023-08-21T18:48:56;21.80;99.90
57108;DHT22;42987;52.916;6.542;2023-08-21T18:51:22;21.70;99.90
57108;DHT22;42987;52.916;6.542;2023-08-21T18:53:48;21.70;99.90
57108;DHT22;42987;52.916;6.542;2023-08-21T18:56:14;21.50;99.90
57108;DHT22;42987;52.916;6.542;2023-08-21T18:58:43;21.50;99.90
57108;DHT22;42987;52.916;6.542;2023-08-21T19:01:09;21.40;99.90
57108;DHT22;42987;52.916;6.542;2023-08-21T19:03:35;21.30;99.90
57108;DHT22;42987;52.916;6.542;2023-08-21T19:06:01;21.30;99.90
57108;DHT22;42987;52.916;6.542;2023-08-21T19:08:26;21.30;99.90
57108;DHT22;42987;52.916;6.542;2023-08-21T19:10:52;21.20;99.90
57108;DHT22;42987;52.916;6.542;2023-08-21T19:13:18;21.10;99.90
57108;DHT22;42987;52.916;6.542;2023-08-21T19:15:44;21.00;99.90
57108;DHT22;42987;52.916;6.542;2023-08-21T19:18:13;20.90;99.90
57108;DHT22;42987;52.916;6.542;2023-08-21T19:20:38;20.90;99.90
57108;DHT22;42987;52.916;6.542;2023-08-21T19:23:04;20.80;99.90
57108;DHT22;42987;52.916;6.542;2023-08-21T19:25:30;20.70;99.90
57108;DHT22;42987;52.916;6.542;2023-08-21T19:27:57;20.60;99.90
57108;DHT22;42987;52.916;6.542;2023-08-21T19:30:23;20.60;99.90
57108;DHT22;42987;52.916;6.542;2023-08-21T19:32:49;20.50;99.90
57108;DHT22;42987;52.916;6.542;2023-08-21T19:35:15;20.50;99.90
57108;DHT22;42987;52.916;6.542;2023-08-21T19:37:44;20.40;99.90
57108;DHT22;42987;52.916;6.542;2023-08-21T19:40:13;20.30;99.90
57108;DHT22;42987;52.916;6.542;2023-08-21T19:42:39;20.20;99.90
57108;DHT22;42987;52.916;6.542;2023-08-21T19:45:05;20.10;99.90
57108;DHT22;42987;52.916;6.542;2023-08-21T19:47:34;20.10;99.90
57108;DHT22;42987;52.916;6.542;2023-08-21T19:50:01;20.00;99.90
57108;DHT22;42987;52.916;6.542;2023-08-21T19:52:28;20.00;99.90
57108;DHT22;42987;52.916;6.542;2023-08-21T19:54:57;20.00;99.90
57108;DHT22;42987;52.916;6.542;2023-08-21T19:57:23;19.90;99.90
57108;DHT22;42987;52.916;6.542;2023-08-21T19:59:48;19.90;99.90
57108;DHT22;42987;52.916;6.542;2023-08-21T20:02:15;19.80;99.90
57108;DHT22;42987;52.916;6.542;2023-08-21T20:04:43;19.80;99.90
57108;DHT22;42987;52.916;6.542;2023-08-21T20:07:09;19.70;99.90
57108;DHT22;42987;52.916;6.542;2023-08-21T20:09:37;19.60;99.90
57108;DHT22;42987;52.916;6.542;2023-08-21T20:12:03;19.50;99.90
57108;DHT22;42987;52.916;6.542;2023-08-21T20:14:29;19.60;99.90
57108;DHT22;42987;52.916;6.542;2023-08-21T20:16:55;19.50;99.90
57108;DHT22;42987;52.916;6.542;2023-08-21T20:19:21;19.40;99.90
57108;DHT22;42987;52.916;6.542;2023-08-21T20:21:47;19.40;99.90
57108;DHT22;42987;52.916;6.542;2023-08-21T20:24:13;19.40;99.90
57108;DHT22;42987;52.916;6.542;2023-08-21T20:26:39;19.40;99.90
57108;DHT22;42987;52.916;6.542;2023-08-21T20:29:04;19.40;99.90
57108;DHT22;42987;52.916;6.542;2023-08-21T20:31:32;19.30;99.90
57108;DHT22;42987;52.916;6.542;2023-08-21T20:33:59;19.30;99.90
57108;DHT22;42987;52.916;6.542;2023-08-21T20:36:25;19.30;99.90
57108;DHT22;42987;52.916;6.542;2023-08-21T20:38:50;19.30;99.90
57108;DHT22;42987;52.916;6.542;2023-08-21T20:41:16;19.30;99.90
57108;DHT22;42987;52.916;6.542;2023-08-21T20:43:42;19.20;99.90
57108;DHT22;42987;52.916;6.542;2023-08-21T20:46:08;19.20;99.90
57108;DHT22;42987;52.916;6.542;2023-08-21T20:48:34;19.20;99.90
57108;DHT22;42987;52.916;6.542;2023-08-21T20:51:00;19.20;99.90
57108;DHT22;42987;52.916;6.542;2023-08-21T20:53:27;19.10;99.90
57108;DHT22;42987;52.916;6.542;2023-08-21T20:55:53;19.20;99.90
57108;DHT22;42987;52.916;6.542;2023-08-21T20:58:20;19.20;99.90
57108;DHT22;42987;52.916;6.542;2023-08-21T21:00:46;19.10;99.90
57108;DHT22;42987;52.916;6.542;2023-08-21T21:03:12;19.10;99.90
57108;DHT22;42987;52.916;6.542;2023-08-21T21:05:39;19.00;99.90
57108;DHT22;42987;52.916;6.542;2023-08-21T21:08:08;19.00;99.90
57108;DHT22;42987;52.916;6.542;2023-08-21T21:10:34;19.00;99.90
57108;DHT22;42987;52.916;6.542;2023-08-21T21:13:03;18.90;99.90
57108;DHT22;42987;52.916;6.542;2023-08-21T21:15:29;19.00;99.90
57108;DHT22;42987;52.916;6.542;2023-08-21T21:17:55;18.90;99.90
57108;DHT22;42987;52.916;6.542;2023-08-21T21:20:22;18.80;99.90
57108;DHT22;42987;52.916;6.542;2023-08-21T21:22:47;18.70;99.90
57108;DHT22;42987;52.916;6.542;2023-08-21T21:25:13;18.70;99.90
57108;DHT22;42987;52.916;6.542;2023-08-21T21:27:42;18.60;99.90
57108;DHT22;42987;52.916;6.542;2023-08-21T21:30:08;18.50;99.90
57108;DHT22;42987;52.916;6.542;2023-08-21T21:32:34;18.50;99.90
57108;DHT22;42987;52.916;6.542;2023-08-21T21:35:00;18.50;99.90
57108;DHT22;42987;52.916;6.542;2023-08-21T21:37:29;18.50;99.90
57108;DHT22;42987;52.916;6.542;2023-08-21T21:39:55;18.50;99.90
57108;DHT22;42987;52.916;6.542;2023-08-21T21:42:20;18.50;99.90
57108;DHT22;42987;52.916;6.542;2023-08-21T21:44:46;18.50;99.90
57108;DHT22;42987;52.916;6.542;2023-08-21T21:47:15;18.40;99.90
57108;DHT22;42987;52.916;6.542;2023-08-21T21:49:41;18.40;99.90
57108;DHT22;42987;52.916;6.542;2023-08-21T21:52:07;18.30;99.90
57108;DHT22;42987;52.916;6.542;2023-08-21T21:54:32;18.30;99.90
57108;DHT22;42987;52.916;6.542;2023-08-21T21:56:59;18.30;99.90
57108;DHT22;42987;52.916;6.542;2023-08-21T21:59:24;18.30;99.90
57108;DHT22;42987;52.916;6.542;2023-08-21T22:01:50;18.30;99.90
57108;DHT22;42987;52.916;6.542;2023-08-21T22:04:16;18.20;99.90
57108;DHT22;42987;52.916;6.542;2023-08-21T22:06:42;18.20;99.90
57108;DHT22;42987;52.916;6.542;2023-08-21T22:09:07;18.20;99.90
57108;DHT22;42987;52.916;6.542;2023-08-21T22:11:33;18.20;99.90
57108;DHT22;42987;52.916;6.542;2023-08-21T22:13:59;18.20;99.90
57108;DHT22;42987;52.916;6.542;2023-08-21T22:16:25;18.20;99.90
57108;DHT22;42987;52.916;6.542;2023-08-21T22:18:52;18.20;99.90
57108;DHT22;42987;52.916;6.542;2023-08-21T22:21:17;18.10;99.90
57108;DHT22;42987;52.916;6.542;2023-08-21T22:23:43;18.10;99.90
57108;DHT22;42987;52.916;6.542;2023-08-21T22:26:09;18.10;99.90
57108;DHT22;42987;52.916;6.542;2023-08-21T22:28:35;18.00;99.90
57108;DHT22;42987;52.916;6.542;2023-08-21T22:31:00;18.00;99.90
57108;DHT22;42987;52.916;6.542;2023-08-21T22:33:26;18.00;99.90
57108;DHT22;42987;52.916;6.542;2023-08-21T22:35:52;18.00;99.90
57108;DHT22;42987;52.916;6.542;2023-08-21T22:38:18;18.00;99.90
57108;DHT22;42987;52.916;6.542;2023-08-21T22:40:44;17.90;99.90
57108;DHT22;42987;52.916;6.542;2023-08-21T22:43:09;17.90;99.90
57108;DHT22;42987;52.916;6.542;2023-08-21T22:45:38;17.90;99.90
57108;DHT22;42987;52.916;6.542;2023-08-21T22:48:05;18.00;99.90
57108;DHT22;42987;52.916;6.542;2023-08-21T22:50:31;17.90;99.90
57108;DHT22;42987;52.916;6.542;2023-08-21T22:52:57;17.90;99.90
57108;DHT22;42987;52.916;6.542;2023-08-21T22:55:23;17.90;99.90
57108;DHT22;42987;52.916;6.542;2023-08-21T22:57:49;17.90;99.90
57108;DHT22;42987;52.916;6.542;2023-08-21T23:00:16;17.90;99.90
57108;DHT22;42987;52.916;6.542;2023-08-21T23:02:41;17.80;99.90
57108;DHT22;42987;52.916;6.542;2023-08-21T23:05:07;17.80;99.90
57108;DHT22;42987;52.916;6.542;2023-08-21T23:07:33;17.70;99.90
57108;DHT22;42987;52.916;6.542;2023-08-21T23:10:01;17.70;99.90
57108;DHT22;42987;52.916;6.542;2023-08-21T23:12:27;17.70;99.90
57108;DHT22;42987;52.916;6.542;2023-08-21T23:14:53;17.60;99.90
57108;DHT22;42987;52.916;6.542;2023-08-21T23:17:18;17.60;99.90
57108;DHT22;42987;52.916;6.542;2023-08-21T23:19:44;17.50;99.90
57108;DHT22;42987;52.916;6.542;2023-08-21T23:22:12;17.50;99.90
57108;DHT22;42987;52.916;6.542;2023-08-21T23:24:38;17.50;99.90
57108;DHT22;42987;52.916;6.542;2023-08-21T23:27:04;17.50;99.90
57108;DHT22;42987;52.916;6.542;2023-08-21T23:29:35;17.50;99.90
57108;DHT22;42987;52.916;6.542;2023-08-21T23:32:01;17.40;99.90
57108;DHT22;42987;52.916;6.542;2023-08-21T23:34:27;17.40;99.90
57108;DHT22;42987;52.916;6.542;2023-08-21T23:36:53;17.40;99.90
57108;DHT22;42987;52.916;6.542;2023-08-21T23:39:19;17.40;99.90
57108;DHT22;42987;52.916;6.542;2023-08-21T23:41:45;17.40;99.90
57108;DHT22;42987;52.916;6.542;2023-08-21T23:44:14;17.40;99.90
57108;DHT22;42987;52.916;6.542;2023-08-21T23:46:43;17.40;99.90
57108;DHT22;42987;52.916;6.542;2023-08-21T23:49:09;17.30;99.90
57108;DHT22;42987;52.916;6.542;2023-08-21T23:51:35;17.30;99.90
57108;DHT22;42987;52.916;6.542;2023-08-21T23:54:01;17.30;99.90
57108;DHT22;42987;52.916;6.542;2023-08-21T23:56:26;17.20;99.90
57108;DHT22;42987;52.916;6.542;2023-08-21T23:58:52;17.20;99.90
